createdAt,value
2023-11-01T00:00:53.658Z,99823.06
2023-11-01T00:04:55.023Z,99810.34
2023-11-01T00:08:57.589Z,99819.00
2023-11-01T00:12:58.912Z,99818.41
2023-11-01T00:17:00.335Z,99814.88
2023-11-01T00:21:01.720Z,99805.00
2023-11-01T00:25:03.673Z,99809.75
2023-11-01T00:29:05.370Z,99808.38
2023-11-01T00:33:06.854Z,99802.16
2023-11-01T00:37:08.338Z,99799.03
2023-11-01T00:41:09.721Z,99792.22
2023-11-01T00:45:11.092Z,99792.59
2023-11-01T00:49:12.463Z,99788.88
2023-11-01T00:53:13.970Z,99786.19
2023-11-01T00:57:15.431Z,99777.88
2023-11-01T01:01:16.804Z,99768.16
2023-11-01T01:05:18.507Z,99761.78
2023-11-01T01:09:19.870Z,99762.53
2023-11-01T01:13:21.255Z,99757.50
2023-11-01T01:17:22.686Z,99758.91
2023-11-01T01:21:24.033Z,99745.13
2023-11-01T01:25:25.339Z,99750.50
2023-11-01T01:29:26.779Z,99744.50
2023-11-01T01:33:28.229Z,99739.72
2023-11-01T01:37:29.969Z,99733.59
2023-11-01T01:41:31.431Z,99722.50
2023-11-01T01:45:32.813Z,99718.22
2023-11-01T01:49:40.131Z,99714.31
2023-11-01T01:53:48.268Z,99706.28
2023-11-01T01:57:50.216Z,99700.78
2023-11-01T02:01:53.496Z,99694.56
2023-11-01T02:05:55.135Z,99676.69
2023-11-01T02:09:56.466Z,99680.78
2023-11-01T02:13:58.060Z,99673.63
2023-11-01T02:17:59.568Z,99670.75
2023-11-01T02:22:01.141Z,99672.38
2023-11-01T02:26:03.567Z,99662.72
2023-11-01T02:30:06.269Z,99654.72
2023-11-01T02:34:09.389Z,99651.19
2023-11-01T02:38:12.471Z,99660.84
2023-11-01T02:42:13.834Z,99648.53
2023-11-01T02:46:15.217Z,99645.66
2023-11-01T02:50:18.142Z,99642.59
2023-11-01T02:54:19.595Z,99640.91
2023-11-01T02:58:24.662Z,99628.75
2023-11-01T03:02:26.189Z,99636.78
2023-11-01T03:06:27.605Z,99628.59
2023-11-01T03:10:28.966Z,99618.94
2023-11-01T03:14:30.362Z,99629.00
2023-11-01T03:18:31.796Z,99628.09
2023-11-01T03:22:34.056Z,99624.38
2023-11-01T03:26:35.454Z,99625.72
2023-11-01T03:30:36.803Z,99611.59
2023-11-01T03:34:39.096Z,99620.28
2023-11-01T03:38:44.783Z,99619.69
2023-11-01T03:42:46.250Z,99614.97
2023-11-01T03:46:47.654Z,99607.97
2023-11-01T03:50:49.084Z,99605.69
2023-11-01T03:54:50.599Z,99603.84
2023-11-01T03:58:52.947Z,99603.28
2023-11-01T04:02:54.397Z,99590.13
2023-11-01T04:06:55.829Z,99593.84
2023-11-01T04:10:57.364Z,99588.25
2023-11-01T04:14:58.731Z,99579.13
2023-11-01T04:19:00.924Z,99571.09
2023-11-01T04:23:02.255Z,99571.91
2023-11-01T04:27:03.742Z,99575.06
2023-11-01T04:31:05.134Z,99562.88
2023-11-01T04:35:15.644Z,99567.97
2023-11-01T04:39:17.097Z,99569.84
2023-11-01T04:43:21.293Z,99569.34
2023-11-01T04:47:22.808Z,99560.22
2023-11-01T04:51:24.557Z,99549.53
2023-11-01T04:55:25.949Z,99551.34
2023-11-01T04:59:31.477Z,99541.66
2023-11-01T05:03:36.283Z,99537.56
2023-11-01T05:07:37.800Z,99542.28
2023-11-01T05:11:39.521Z,99539.63
2023-11-01T05:15:41.804Z,99535.97
2023-11-01T05:19:43.265Z,99537.19
2023-11-01T05:23:45.916Z,99529.78
2023-11-01T05:27:47.325Z,99527.13
2023-11-01T05:31:48.682Z,99532.25
2023-11-01T05:35:50.133Z,99529.97
2023-11-01T05:39:51.515Z,99532.22
2023-11-01T05:43:52.880Z,99533.69
2023-11-01T05:47:54.831Z,99534.03
2023-11-01T05:51:56.369Z,99528.06
2023-11-01T05:56:04.874Z,99534.13
2023-11-01T06:00:11.759Z,99532.66
2023-11-01T06:04:13.214Z,99529.78
2023-11-01T06:08:14.598Z,99525.06
2023-11-01T06:12:16.241Z,99534.50
2023-11-01T06:16:18.032Z,99532.91
2023-11-01T06:20:19.562Z,99530.41
2023-11-01T06:24:20.902Z,99530.13
2023-11-01T06:28:22.352Z,99538.38
2023-11-01T06:32:23.731Z,99536.72
2023-11-01T06:36:25.179Z,99548.06
2023-11-01T06:40:26.546Z,99547.44
2023-11-01T06:44:28.003Z,99546.47
2023-11-01T06:48:29.438Z,99549.09
2023-11-01T06:52:30.752Z,99543.09
2023-11-01T06:56:32.284Z,99541.38
2023-11-01T07:00:34.900Z,99544.78
2023-11-01T07:04:36.301Z,99544.72
2023-11-01T07:08:38.852Z,99547.38
2023-11-01T07:12:40.427Z,99542.06
2023-11-01T07:16:43.416Z,99547.88
2023-11-01T07:20:44.846Z,99545.75
2023-11-01T07:24:46.300Z,99552.09
2023-11-01T07:28:47.658Z,99540.16
2023-11-01T07:32:49.155Z,99538.25
2023-11-01T07:36:50.581Z,99533.94
2023-11-01T07:40:51.944Z,99520.53
2023-11-01T07:44:53.709Z,99525.88
2023-11-01T07:48:55.132Z,99524.75
2023-11-01T07:52:56.456Z,99529.56
2023-11-01T07:56:57.801Z,99526.31
2023-11-01T08:01:00.110Z,99527.66
2023-11-01T08:05:01.462Z,99522.38
2023-11-01T08:09:02.858Z,99530.59
2023-11-01T08:13:04.465Z,99525.25
2023-11-01T08:17:05.853Z,99519.41
2023-11-01T08:21:07.317Z,99515.88
2023-11-01T08:25:09.741Z,99508.84
2023-11-01T08:29:11.116Z,99499.31
2023-11-01T08:33:12.613Z,99499.25
2023-11-01T08:37:13.967Z,99510.84
2023-11-01T08:41:17.493Z,99500.53
2023-11-01T08:45:19.022Z,99501.91
2023-11-01T08:49:21.371Z,99508.38
2023-11-01T08:53:23.955Z,99496.44
2023-11-01T08:57:28.292Z,99497.91
2023-11-01T09:01:29.902Z,99491.91
2023-11-01T09:05:31.391Z,99488.09
2023-11-01T09:09:33.799Z,99500.81
2023-11-01T09:13:35.395Z,99500.84
2023-11-01T09:17:36.807Z,99505.63
2023-11-01T09:21:39.164Z,99509.34
2023-11-01T09:25:40.796Z,99509.81
2023-11-01T09:29:42.197Z,99512.72
2023-11-01T09:33:49.976Z,99511.69
2023-11-01T09:37:52.024Z,99518.16
2023-11-01T09:42:02.246Z,99515.53
2023-11-01T09:46:04.918Z,99521.97
2023-11-01T09:50:07.738Z,99507.16
2023-11-01T09:54:12.652Z,99518.16
2023-11-01T09:58:19.239Z,99504.19
2023-11-01T10:02:20.818Z,99500.81
2023-11-01T10:06:23.034Z,99501.56
2023-11-01T10:10:25.191Z,99491.69
2023-11-01T10:14:29.170Z,99485.19
2023-11-01T10:18:30.780Z,99485.84
2023-11-01T10:22:33.687Z,99467.19
2023-11-01T10:26:36.323Z,99472.16
2023-11-01T10:30:37.687Z,99472.81
2023-11-01T10:34:39.166Z,99467.97
2023-11-01T10:38:42.343Z,99457.78
2023-11-01T10:42:45.386Z,99454.25
2023-11-01T10:46:46.866Z,99444.56
2023-11-01T10:50:48.339Z,99449.25
2023-11-01T10:54:52.047Z,99436.34
2023-11-01T10:58:59.971Z,99422.53
2023-11-01T11:03:12.588Z,99417.59
2023-11-01T11:07:28.105Z,99414.97
2023-11-01T11:11:29.479Z,99401.06
2023-11-01T11:15:49.718Z,99401.41
2023-11-01T11:20:06.228Z,99394.59
2023-11-01T11:24:32.757Z,99392.56
2023-11-01T11:28:38.365Z,99376.81
2023-11-01T11:32:40.032Z,99377.00
2023-11-01T11:37:05.029Z,99365.63
2023-11-01T11:41:12.603Z,99363.75
2023-11-01T11:45:25.342Z,99357.44
2023-11-01T11:49:29.980Z,99354.78
2023-11-01T11:53:35.721Z,99343.19
2023-11-01T11:57:37.171Z,99335.66
2023-11-01T12:01:39.416Z,99345.84
2023-11-01T12:05:41.177Z,99339.59
2023-11-01T12:09:51.182Z,99323.78
2023-11-01T12:13:52.577Z,99327.19
2023-11-01T12:18:11.280Z,99318.34
2023-11-01T12:22:12.849Z,99310.38
2023-11-01T12:26:14.203Z,99304.94
2023-11-01T12:30:22.659Z,99294.91
2023-11-01T12:34:23.982Z,99295.72
2023-11-01T12:38:25.465Z,99292.88
2023-11-01T12:42:29.347Z,99291.63
2023-11-01T12:46:30.995Z,99286.00
2023-11-01T12:50:37.598Z,99285.16
2023-11-01T12:54:44.738Z,99268.41
2023-11-01T12:58:46.073Z,99268.19
2023-11-01T13:02:47.635Z,99250.00
2023-11-01T13:06:49.425Z,99255.69
2023-11-01T13:10:52.141Z,99236.56
2023-11-01T13:14:53.794Z,99228.09
2023-11-01T13:18:55.242Z,99232.75
2023-11-01T13:22:56.672Z,99209.28
2023-11-01T13:26:58.030Z,99209.69
2023-11-01T13:30:59.520Z,99200.25
2023-11-01T13:35:01.111Z,99194.31
2023-11-01T13:39:02.997Z,99198.72
2023-11-01T13:43:04.472Z,99181.03
2023-11-01T13:47:05.830Z,99185.03
2023-11-01T13:51:07.998Z,99176.09
2023-11-01T13:55:10.585Z,99172.34
2023-11-01T13:59:12.070Z,99167.63
2023-11-01T14:03:14.662Z,99165.06
2023-11-01T14:07:16.379Z,99153.59
2023-11-01T14:11:18.803Z,99155.44
2023-11-01T14:15:20.263Z,99161.31
2023-11-01T14:19:21.624Z,99141.97
2023-11-01T14:23:23.157Z,99143.97
2023-11-01T14:27:24.526Z,99138.19
2023-11-01T14:31:26.061Z,99127.50
2023-11-01T14:35:27.673Z,99127.16
2023-11-01T14:39:29.057Z,99121.00
2023-11-01T14:43:30.414Z,99123.06
2023-11-01T14:47:32.315Z,99141.94
2023-11-01T14:51:33.753Z,99133.97
2023-11-01T14:55:35.340Z,99133.94
2023-11-01T14:59:36.853Z,99131.81
2023-11-01T15:03:41.669Z,99124.69
2023-11-01T15:07:43.096Z,99126.84
2023-11-01T15:11:46.127Z,99113.09
2023-11-01T15:15:47.496Z,99118.22
2023-11-01T15:19:49.518Z,99102.25
2023-11-01T15:23:50.966Z,99099.13
2023-11-01T15:27:52.344Z,99094.69
2023-11-01T15:31:54.480Z,99106.22
2023-11-01T15:35:55.936Z,99095.94
2023-11-01T15:39:57.343Z,99093.72
2023-11-01T15:43:58.726Z,99085.59
2023-11-01T15:48:00.161Z,99103.13
2023-11-01T15:52:02.961Z,99088.66
2023-11-01T15:56:05.235Z,99071.03
2023-11-01T16:00:07.490Z,99074.56
2023-11-01T16:04:09.000Z,99065.53
2023-11-01T16:08:10.494Z,99051.41
2023-11-01T16:12:11.858Z,99061.22
2023-11-01T16:16:13.561Z,99052.16
2023-11-01T16:20:15.098Z,99058.75
2023-11-01T16:24:16.585Z,99053.66
2023-11-01T16:28:17.916Z,99059.19
2023-11-01T16:32:19.400Z,99051.94
2023-11-01T16:36:20.900Z,99044.25
2023-11-01T16:40:22.382Z,99049.22
2023-11-01T16:44:23.784Z,99052.91
2023-11-01T16:48:25.257Z,99062.03
2023-11-01T16:52:27.290Z,99061.56
2023-11-01T16:56:28.791Z,99065.28
2023-11-01T17:00:30.125Z,99064.00
2023-11-01T17:04:34.040Z,99066.03
2023-11-01T17:08:36.057Z,99061.91
2023-11-01T17:12:37.464Z,99074.13
2023-11-01T17:16:38.882Z,99078.72
2023-11-01T17:20:40.314Z,99074.88
2023-11-01T17:24:41.681Z,99093.94
2023-11-01T17:28:44.517Z,99090.47
2023-11-01T17:32:45.940Z,99082.81
2023-11-01T17:36:47.532Z,99084.91
2023-11-01T17:40:59.216Z,99073.84
2023-11-01T17:45:00.867Z,99088.34
2023-11-01T17:49:03.062Z,99071.72
2023-11-01T17:53:04.802Z,99069.31
2023-11-01T17:57:06.792Z,99059.31
2023-11-01T18:01:08.403Z,99076.63
2023-11-01T18:05:31.944Z,99089.25
2023-11-01T18:09:33.700Z,99086.53
2023-11-01T18:13:36.845Z,99072.75
2023-11-01T18:17:38.278Z,99086.88
2023-11-01T18:21:39.718Z,99083.88
2023-11-01T18:26:00.889Z,99087.47
2023-11-01T18:30:02.240Z,99075.91
2023-11-01T18:34:05.506Z,99068.13
2023-11-01T18:38:11.211Z,99069.63
2023-11-01T18:42:36.173Z,99076.41
2023-11-01T18:46:37.643Z,99076.78
2023-11-01T18:50:39.033Z,99067.16
2023-11-01T18:54:42.125Z,99061.22
2023-11-01T18:58:43.451Z,99043.50
2023-11-01T19:03:03.741Z,99044.50
2023-11-01T19:07:09.290Z,99047.63
2023-11-01T19:11:10.712Z,99047.56
2023-11-01T19:15:57.933Z,99037.91
2023-11-01T19:19:59.314Z,99036.25
2023-11-01T19:24:02.170Z,99033.69
2023-11-01T19:28:05.545Z,99033.97
2023-11-01T19:32:07.147Z,99030.97
2023-11-01T19:36:14.140Z,99034.97
2023-11-01T19:40:17.748Z,99033.97
2023-11-01T19:44:19.955Z,99036.91
2023-11-01T19:48:24.955Z,99044.31
2023-11-01T19:52:26.333Z,99046.56
2023-11-01T19:56:27.973Z,99037.50
2023-11-01T20:00:30.985Z,99034.47
2023-11-01T20:04:32.955Z,99036.38
2023-11-01T20:08:35.090Z,99023.16
2023-11-01T20:12:37.303Z,99027.34
2023-11-01T20:16:38.680Z,99008.00
2023-11-01T20:20:40.677Z,99009.13
2023-11-01T20:24:43.215Z,99008.69
2023-11-01T20:28:44.619Z,99016.09
2023-11-01T20:32:46.307Z,99004.16
2023-11-01T20:36:47.715Z,99013.59
2023-11-01T20:40:49.312Z,99013.28
2023-11-01T20:44:51.389Z,99002.09
2023-11-01T20:48:52.717Z,98995.44
2023-11-01T20:52:54.119Z,98986.47
2023-11-01T20:56:55.664Z,98977.13
2023-11-01T21:01:00.292Z,98976.72
2023-11-01T21:05:02.200Z,98955.47
2023-11-01T21:09:06.459Z,98959.34
2023-11-01T21:13:08.900Z,98947.91
2023-11-01T21:17:10.911Z,98934.34
2023-11-01T21:21:12.335Z,98928.94
2023-11-01T21:25:14.126Z,98919.03
2023-11-01T21:29:15.617Z,98913.13
2023-11-01T21:33:21.898Z,98908.44
2023-11-01T21:37:23.532Z,98897.69
2023-11-01T21:41:24.926Z,98899.34
2023-11-01T21:45:47.379Z,98895.78
2023-11-01T21:49:48.854Z,98878.38
2023-11-01T21:53:50.323Z,98868.44
2023-11-01T21:57:54.588Z,98875.16
2023-11-01T22:01:56.084Z,98867.19
2023-11-01T22:05:57.609Z,98858.50
2023-11-01T22:10:00.116Z,98854.28
2023-11-01T22:14:30.777Z,98853.25
2023-11-01T22:18:32.319Z,98849.16
2023-11-01T22:22:36.782Z,98841.00
2023-11-01T22:26:38.332Z,98823.06
2023-11-01T22:30:39.799Z,98823.91
2023-11-01T22:34:41.704Z,98812.50
2023-11-01T22:38:43.026Z,98807.09
2023-11-01T22:42:45.544Z,98799.78
2023-11-01T22:46:46.859Z,98796.06
2023-11-01T22:50:48.214Z,98788.00
2023-11-01T22:54:49.614Z,98779.44
2023-11-01T22:58:51.028Z,98758.00
2023-11-01T23:02:52.744Z,98753.31
2023-11-01T23:06:54.156Z,98749.19
2023-11-01T23:10:55.511Z,98726.09
2023-11-01T23:14:56.845Z,98725.75
2023-11-01T23:18:58.595Z,98709.22
2023-11-01T23:22:59.990Z,98713.75
2023-11-01T23:27:05.904Z,98711.03
2023-11-01T23:31:11.361Z,98699.09
2023-11-01T23:35:15.796Z,98691.78
2023-11-01T23:39:31.126Z,98684.69
2023-11-01T23:43:34.043Z,98667.38
2023-11-01T23:47:58.542Z,98668.91
2023-11-01T23:52:00.061Z,98666.47
2023-11-01T23:56:02.821Z,98649.84
